sensor_id;sensor_type;location;lat;lon;timestamp;P1;durP1;ratioP1;P2;durP2;ratioP2
21297;SDS011;10808;48.010;11.326;2022-08-19T00:01:26;9.05;;;7.97;;
21297;SDS011;10808;48.010;11.326;2022-08-19T00:03:58;10.00;;;8.55;;
21297;SDS011;10808;48.010;11.326;2022-08-19T00:06:26;8.88;;;7.80;;
21297;SDS011;10808;48.010;11.326;2022-08-19T00:08:54;8.70;;;7.80;;
21297;SDS011;10808;48.010;11.326;2022-08-19T00:11:21;8.85;;;7.60;;
21297;SDS011;10808;48.010;11.326;2022-08-19T00:13:48;10.15;;;7.88;;
21297;SDS011;10808;48.010;11.326;2022-08-19T00:16:16;9.35;;;8.30;;
21297;SDS011;10808;48.010;11.326;2022-08-19T00:18:46;8.67;;;7.77;;
21297;SDS011;10808;48.010;11.326;2022-08-19T00:21:13;10.07;;;7.57;;
21297;SDS011;10808;48.010;11.326;2022-08-19T00:23:40;8.75;;;7.85;;
21297;SDS011;10808;48.010;11.326;2022-08-19T00:26:07;9.88;;;8.30;;
21297;SDS011;10808;48.010;11.326;2022-08-19T00:28:34;10.23;;;8.40;;
21297;SDS011;10808;48.010;11.326;2022-08-19T00:31:02;10.18;;;8.18;;
21297;SDS011;10808;48.010;11.326;2022-08-19T00:33:30;10.45;;;8.65;;
21297;SDS011;10808;48.010;11.326;2022-08-19T00:36:00;10.35;;;8.90;;
21297;SDS011;10808;48.010;11.326;2022-08-19T00:38:30;10.90;;;9.10;;
21297;SDS011;10808;48.010;11.326;2022-08-19T00:40:56;11.23;;;9.67;;
21297;SDS011;10808;48.010;11.326;2022-08-19T00:43:23;10.90;;;9.57;;
21297;SDS011;10808;48.010;11.326;2022-08-19T00:45:51;11.20;;;9.23;;
21297;SDS011;10808;48.010;11.326;2022-08-19T00:48:18;11.25;;;9.55;;
21297;SDS011;10808;48.010;11.326;2022-08-19T00:50:46;11.68;;;9.57;;
21297;SDS011;10808;48.010;11.326;2022-08-19T00:53:15;12.95;;;10.32;;
21297;SDS011;10808;48.010;11.326;2022-08-19T00:55:46;11.80;;;10.15;;
21297;SDS011;10808;48.010;11.326;2022-08-19T00:58:15;12.60;;;10.20;;
21297;SDS011;10808;48.010;11.326;2022-08-19T01:00:45;13.18;;;10.75;;
21297;SDS011;10808;48.010;11.326;2022-08-19T01:03:14;12.10;;;10.18;;
21297;SDS011;10808;48.010;11.326;2022-08-19T01:05:43;13.00;;;10.32;;
21297;SDS011;10808;48.010;11.326;2022-08-19T01:08:11;11.83;;;10.00;;
21297;SDS011;10808;48.010;11.326;2022-08-19T01:10:41;11.68;;;9.90;;
21297;SDS011;10808;48.010;11.326;2022-08-19T01:13:15;12.90;;;10.30;;
21297;SDS011;10808;48.010;11.326;2022-08-19T01:15:44;12.25;;;10.57;;
21297;SDS011;10808;48.010;11.326;2022-08-19T01:18:15;11.25;;;9.68;;
21297;SDS011;10808;48.010;11.326;2022-08-19T01:20:43;11.80;;;10.02;;
21297;SDS011;10808;48.010;11.326;2022-08-19T01:23:09;11.07;;;9.77;;
21297;SDS011;10808;48.010;11.326;2022-08-19T01:25:44;12.15;;;10.00;;
21297;SDS011;10808;48.010;11.326;2022-08-19T01:28:20;11.65;;;9.27;;
21297;SDS011;10808;48.010;11.326;2022-08-19T01:30:51;12.57;;;9.43;;
21297;SDS011;10808;48.010;11.326;2022-08-19T01:33:19;10.57;;;9.48;;
21297;SDS011;10808;48.010;11.326;2022-08-19T01:35:46;11.13;;;9.35;;
21297;SDS011;10808;48.010;11.326;2022-08-19T01:38:20;10.90;;;9.37;;
21297;SDS011;10808;48.010;11.326;2022-08-19T01:40:50;11.05;;;9.35;;
21297;SDS011;10808;48.010;11.326;2022-08-19T01:43:16;10.57;;;9.47;;
21297;SDS011;10808;48.010;11.326;2022-08-19T01:45:44;10.32;;;9.18;;
21297;SDS011;10808;48.010;11.326;2022-08-19T01:48:12;11.07;;;9.35;;
21297;SDS011;10808;48.010;11.326;2022-08-19T01:50:38;10.75;;;8.80;;
21297;SDS011;10808;48.010;11.326;2022-08-19T01:53:07;10.90;;;8.90;;
21297;SDS011;10808;48.010;11.326;2022-08-19T01:55:38;12.52;;;9.00;;
21297;SDS011;10808;48.010;11.326;2022-08-19T01:58:06;9.57;;;8.52;;
21297;SDS011;10808;48.010;11.326;2022-08-19T02:00:36;9.90;;;8.87;;
21297;SDS011;10808;48.010;11.326;2022-08-19T02:03:02;9.75;;;8.18;;
21297;SDS011;10808;48.010;11.326;2022-08-19T02:05:28;9.25;;;8.02;;
21297;SDS011;10808;48.010;11.326;2022-08-19T02:07:55;9.52;;;8.00;;
21297;SDS011;10808;48.010;11.326;2022-08-19T02:10:22;9.38;;;8.38;;
21297;SDS011;10808;48.010;11.326;2022-08-19T02:12:49;9.15;;;8.00;;
21297;SDS011;10808;48.010;11.326;2022-08-19T02:15:16;11.10;;;8.18;;
21297;SDS011;10808;48.010;11.326;2022-08-19T02:17:44;8.90;;;7.70;;
21297;SDS011;10808;48.010;11.326;2022-08-19T02:20:11;9.10;;;7.60;;
21297;SDS011;10808;48.010;11.326;2022-08-19T02:22:40;9.98;;;7.57;;
21297;SDS011;10808;48.010;11.326;2022-08-19T02:25:08;10.07;;;7.70;;
21297;SDS011;10808;48.010;11.326;2022-08-19T02:27:39;9.43;;;7.47;;
21297;SDS011;10808;48.010;11.326;2022-08-19T02:30:07;8.45;;;7.40;;
21297;SDS011;10808;48.010;11.326;2022-08-19T02:32:36;9.00;;;7.30;;
21297;SDS011;10808;48.010;11.326;2022-08-19T02:35:02;9.48;;;7.55;;
21297;SDS011;10808;48.010;11.326;2022-08-19T02:37:28;8.82;;;7.03;;
21297;SDS011;10808;48.010;11.326;2022-08-19T02:40:13;8.20;;;6.93;;
21297;SDS011;10808;48.010;11.326;2022-08-19T02:42:40;7.35;;;6.57;;
21297;SDS011;10808;48.010;11.326;2022-08-19T02:45:07;8.03;;;7.13;;
21297;SDS011;10808;48.010;11.326;2022-08-19T02:47:33;7.50;;;6.70;;
21297;SDS011;10808;48.010;11.326;2022-08-19T02:50:00;8.25;;;7.45;;
21297;SDS011;10808;48.010;11.326;2022-08-19T02:52:28;10.73;;;7.47;;
21297;SDS011;10808;48.010;11.326;2022-08-19T02:54:54;7.85;;;7.05;;
21297;SDS011;10808;48.010;11.326;2022-08-19T02:57:23;9.05;;;7.38;;
21297;SDS011;10808;48.010;11.326;2022-08-19T02:59:49;8.65;;;7.75;;
21297;SDS011;10808;48.010;11.326;2022-08-19T03:02:16;8.57;;;7.20;;
21297;SDS011;10808;48.010;11.326;2022-08-19T03:04:42;7.88;;;7.05;;
21297;SDS011;10808;48.010;11.326;2022-08-19T03:07:08;7.40;;;6.63;;
21297;SDS011;10808;48.010;11.326;2022-08-19T03:09:38;8.77;;;7.10;;
21297;SDS011;10808;48.010;11.326;2022-08-19T03:12:05;7.57;;;6.75;;
21297;SDS011;10808;48.010;11.326;2022-08-19T03:14:31;8.25;;;6.90;;
21297;SDS011;10808;48.010;11.326;2022-08-19T03:16:59;8.35;;;7.03;;
21297;SDS011;10808;48.010;11.326;2022-08-19T03:19:26;7.35;;;6.55;;
21297;SDS011;10808;48.010;11.326;2022-08-19T03:21:52;7.93;;;6.80;;
21297;SDS011;10808;48.010;11.326;2022-08-19T03:24:19;8.93;;;7.20;;
21297;SDS011;10808;48.010;11.326;2022-08-19T03:26:48;7.87;;;6.80;;
21297;SDS011;10808;48.010;11.326;2022-08-19T03:29:17;9.07;;;6.97;;
21297;SDS011;10808;48.010;11.326;2022-08-19T03:31:44;8.13;;;6.90;;
21297;SDS011;10808;48.010;11.326;2022-08-19T03:34:13;9.82;;;7.43;;
21297;SDS011;10808;48.010;11.326;2022-08-19T03:37:01;9.65;;;7.65;;
21297;SDS011;10808;48.010;11.326;2022-08-19T03:39:33;9.05;;;7.00;;
21297;SDS011;10808;48.010;11.326;2022-08-19T03:42:01;8.73;;;7.20;;
21297;SDS011;10808;48.010;11.326;2022-08-19T03:44:28;8.30;;;6.60;;
21297;SDS011;10808;48.010;11.326;2022-08-19T03:46:56;8.10;;;6.95;;
21297;SDS011;10808;48.010;11.326;2022-08-19T03:49:24;9.13;;;7.20;;
21297;SDS011;10808;48.010;11.326;2022-08-19T03:51:52;7.68;;;6.65;;
21297;SDS011;10808;48.010;11.326;2022-08-19T03:54:20;7.65;;;6.70;;
21297;SDS011;10808;48.010;11.326;2022-08-19T03:56:48;9.35;;;6.85;;
21297;SDS011;10808;48.010;11.326;2022-08-19T03:59:20;8.63;;;6.40;;
21297;SDS011;10808;48.010;11.326;2022-08-19T04:01:55;8.80;;;6.57;;
21297;SDS011;10808;48.010;11.326;2022-08-19T04:04:23;7.47;;;6.77;;
21297;SDS011;10808;48.010;11.326;2022-08-19T04:06:50;10.33;;;7.37;;
21297;SDS011;10808;48.010;11.326;2022-08-19T04:09:17;8.23;;;7.22;;
21297;SDS011;10808;48.010;11.326;2022-08-19T04:11:48;8.10;;;7.25;;
21297;SDS011;10808;48.010;11.326;2022-08-19T04:14:20;9.30;;;7.55;;
21297;SDS011;10808;48.010;11.326;2022-08-19T04:16:47;9.23;;;7.35;;
21297;SDS011;10808;48.010;11.326;2022-08-19T04:19:14;9.23;;;8.15;;
21297;SDS011;10808;48.010;11.326;2022-08-19T04:21:46;8.93;;;7.83;;
21297;SDS011;10808;48.010;11.326;2022-08-19T04:24:15;9.20;;;7.70;;
21297;SDS011;10808;48.010;11.326;2022-08-19T04:26:42;8.48;;;7.28;;
21297;SDS011;10808;48.010;11.326;2022-08-19T04:29:10;8.90;;;7.38;;
21297;SDS011;10808;48.010;11.326;2022-08-19T04:31:39;8.55;;;7.57;;
21297;SDS011;10808;48.010;11.326;2022-08-19T04:34:06;8.68;;;7.78;;
21297;SDS011;10808;48.010;11.326;2022-08-19T04:36:36;9.40;;;8.17;;
21297;SDS011;10808;48.010;11.326;2022-08-19T04:39:14;11.07;;;8.48;;
21297;SDS011;10808;48.010;11.326;2022-08-19T04:41:42;10.95;;;8.68;;
21297;SDS011;10808;48.010;11.326;2022-08-19T04:44:29;10.40;;;8.70;;
21297;SDS011;10808;48.010;11.326;2022-08-19T04:46:56;9.70;;;8.30;;
21297;SDS011;10808;48.010;11.326;2022-08-19T04:49:23;9.52;;;8.30;;
21297;SDS011;10808;48.010;11.326;2022-08-19T04:51:50;9.52;;;7.90;;
21297;SDS011;10808;48.010;11.326;2022-08-19T04:54:19;9.88;;;8.65;;
21297;SDS011;10808;48.010;11.326;2022-08-19T04:56:48;12.05;;;9.75;;
21297;SDS011;10808;48.010;11.326;2022-08-19T04:59:15;12.35;;;10.20;;
21297;SDS011;10808;48.010;11.326;2022-08-19T05:01:42;11.25;;;9.80;;
21297;SDS011;10808;48.010;11.326;2022-08-19T05:04:08;15.43;;;10.82;;
21297;SDS011;10808;48.010;11.326;2022-08-19T05:06:35;14.93;;;11.05;;
21297;SDS011;10808;48.010;11.326;2022-08-19T05:09:04;15.83;;;11.47;;
21297;SDS011;10808;48.010;11.326;2022-08-19T05:11:32;18.67;;;12.65;;
21297;SDS011;10808;48.010;11.326;2022-08-19T05:14:05;16.20;;;12.25;;
21297;SDS011;10808;48.010;11.326;2022-08-19T05:16:32;15.07;;;12.30;;
21297;SDS011;10808;48.010;11.326;2022-08-19T05:18:58;14.60;;;11.57;;
21297;SDS011;10808;48.010;11.326;2022-08-19T05:21:42;17.70;;;12.43;;
21297;SDS011;10808;48.010;11.326;2022-08-19T05:24:28;16.48;;;12.85;;
21297;SDS011;10808;48.010;11.326;2022-08-19T05:26:55;18.85;;;13.40;;
21297;SDS011;10808;48.010;11.326;2022-08-19T05:29:23;18.23;;;14.07;;
21297;SDS011;10808;48.010;11.326;2022-08-19T05:31:51;18.70;;;14.10;;
21297;SDS011;10808;48.010;11.326;2022-08-19T05:34:18;18.92;;;14.13;;
21297;SDS011;10808;48.010;11.326;2022-08-19T05:36:50;18.73;;;14.13;;
21297;SDS011;10808;48.010;11.326;2022-08-19T05:39:21;17.17;;;13.10;;
21297;SDS011;10808;48.010;11.326;2022-08-19T05:41:48;16.92;;;13.10;;
21297;SDS011;10808;48.010;11.326;2022-08-19T05:44:18;15.15;;;12.05;;
21297;SDS011;10808;48.010;11.326;2022-08-19T05:46:45;14.02;;;11.02;;
21297;SDS011;10808;48.010;11.326;2022-08-19T05:49:18;13.63;;;10.90;;
21297;SDS011;10808;48.010;11.326;2022-08-19T05:51:47;12.75;;;11.00;;
21297;SDS011;10808;48.010;11.326;2022-08-19T05:54:13;13.57;;;10.20;;
21297;SDS011;10808;48.010;11.326;2022-08-19T05:56:40;12.85;;;10.38;;
21297;SDS011;10808;48.010;11.326;2022-08-19T05:59:09;12.38;;;9.95;;
21297;SDS011;10808;48.010;11.326;2022-08-19T06:01:37;14.07;;;11.32;;
21297;SDS011;10808;48.010;11.326;2022-08-19T06:04:05;14.68;;;11.80;;
21297;SDS011;10808;48.010;11.326;2022-08-19T06:06:32;16.27;;;12.02;;
21297;SDS011;10808;48.010;11.326;2022-08-19T06:09:03;16.00;;;11.82;;
21297;SDS011;10808;48.010;11.326;2022-08-19T06:11:39;14.27;;;11.70;;
21297;SDS011;10808;48.010;11.326;2022-08-19T06:14:08;14.57;;;11.90;;
21297;SDS011;10808;48.010;11.326;2022-08-19T06:16:37;14.63;;;11.93;;
21297;SDS011;10808;48.010;11.326;2022-08-19T06:19:06;13.88;;;11.00;;
21297;SDS011;10808;48.010;11.326;2022-08-19T06:21:35;14.48;;;9.48;;
21297;SDS011;10808;48.010;11.326;2022-08-19T06:24:03;12.77;;;10.35;;
21297;SDS011;10808;48.010;11.326;2022-08-19T06:26:32;12.73;;;10.45;;
21297;SDS011;10808;48.010;11.326;2022-08-19T06:29:03;13.18;;;9.65;;
21297;SDS011;10808;48.010;11.326;2022-08-19T06:31:32;11.23;;;8.63;;
21297;SDS011;10808;48.010;11.326;2022-08-19T06:34:00;10.25;;;8.82;;
21297;SDS011;10808;48.010;11.326;2022-08-19T06:36:34;11.27;;;8.20;;
21297;SDS011;10808;48.010;11.326;2022-08-19T06:39:04;10.75;;;8.13;;
21297;SDS011;10808;48.010;11.326;2022-08-19T06:41:33;11.73;;;8.13;;
21297;SDS011;10808;48.010;11.326;2022-08-19T06:44:01;10.52;;;8.23;;
21297;SDS011;10808;48.010;11.326;2022-08-19T06:46:28;9.93;;;8.70;;
21297;SDS011;10808;48.010;11.326;2022-08-19T06:48:54;10.98;;;8.68;;
21297;SDS011;10808;48.010;11.326;2022-08-19T06:51:20;10.38;;;9.02;;
21297;SDS011;10808;48.010;11.326;2022-08-19T06:53:48;12.68;;;10.27;;
21297;SDS011;10808;48.010;11.326;2022-08-19T06:56:19;16.08;;;10.13;;
21297;SDS011;10808;48.010;11.326;2022-08-19T06:58:50;11.70;;;10.23;;
21297;SDS011;10808;48.010;11.326;2022-08-19T07:01:18;12.93;;;10.48;;
21297;SDS011;10808;48.010;11.326;2022-08-19T07:03:45;12.93;;;10.70;;
21297;SDS011;10808;48.010;11.326;2022-08-19T07:06:13;13.40;;;10.38;;
21297;SDS011;10808;48.010;11.326;2022-08-19T07:08:43;13.10;;;11.30;;
21297;SDS011;10808;48.010;11.326;2022-08-19T07:11:12;13.23;;;10.88;;
21297;SDS011;10808;48.010;11.326;2022-08-19T07:13:43;16.03;;;12.30;;
21297;SDS011;10808;48.010;11.326;2022-08-19T07:16:13;16.48;;;12.98;;
21297;SDS011;10808;48.010;11.326;2022-08-19T07:18:41;17.38;;;13.68;;
21297;SDS011;10808;48.010;11.326;2022-08-19T07:23:35;17.42;;;14.65;;
21297;SDS011;10808;48.010;11.326;2022-08-19T07:26:08;19.30;;;14.85;;
21297;SDS011;10808;48.010;11.326;2022-08-19T07:28:38;18.83;;;15.10;;
21297;SDS011;10808;48.010;11.326;2022-08-19T07:31:09;20.10;;;15.73;;
21297;SDS011;10808;48.010;11.326;2022-08-19T07:33:39;19.08;;;14.77;;
21297;SDS011;10808;48.010;11.326;2022-08-19T07:36:09;19.33;;;15.00;;
21297;SDS011;10808;48.010;11.326;2022-08-19T07:38:38;20.17;;;15.63;;
21297;SDS011;10808;48.010;11.326;2022-08-19T07:41:08;20.67;;;15.50;;
21297;SDS011;10808;48.010;11.326;2022-08-19T07:43:36;21.93;;;17.17;;
21297;SDS011;10808;48.010;11.326;2022-08-19T07:46:03;22.70;;;17.50;;
21297;SDS011;10808;48.010;11.326;2022-08-19T07:48:29;23.80;;;18.27;;
21297;SDS011;10808;48.010;11.326;2022-08-19T07:50:57;25.27;;;19.05;;
21297;SDS011;10808;48.010;11.326;2022-08-19T07:53:28;26.15;;;18.73;;
21297;SDS011;10808;48.010;11.326;2022-08-19T07:55:56;26.85;;;19.63;;
21297;SDS011;10808;48.010;11.326;2022-08-19T07:58:27;30.23;;;21.08;;
21297;SDS011;10808;48.010;11.326;2022-08-19T08:00:53;32.25;;;22.58;;
21297;SDS011;10808;48.010;11.326;2022-08-19T08:03:20;31.05;;;21.80;;
21297;SDS011;10808;48.010;11.326;2022-08-19T08:06:08;34.70;;;22.15;;
21297;SDS011;10808;48.010;11.326;2022-08-19T08:08:52;32.72;;;23.17;;
21297;SDS011;10808;48.010;11.326;2022-08-19T08:11:38;30.77;;;22.08;;
21297;SDS011;10808;48.010;11.326;2022-08-19T08:14:05;35.00;;;22.95;;
21297;SDS011;10808;48.010;11.326;2022-08-19T08:16:35;34.50;;;22.77;;
21297;SDS011;10808;48.010;11.326;2022-08-19T08:19:04;31.58;;;22.52;;
21297;SDS011;10808;48.010;11.326;2022-08-19T08:21:31;31.67;;;21.73;;
21297;SDS011;10808;48.010;11.326;2022-08-19T08:23:58;31.90;;;21.95;;
21297;SDS011;10808;48.010;11.326;2022-08-19T08:26:26;29.98;;;21.48;;
21297;SDS011;10808;48.010;11.326;2022-08-19T08:28:53;32.63;;;21.27;;
21297;SDS011;10808;48.010;11.326;2022-08-19T08:31:19;31.77;;;21.85;;
21297;SDS011;10808;48.010;11.326;2022-08-19T08:33:47;29.88;;;21.27;;
21297;SDS011;10808;48.010;11.326;2022-08-19T08:36:13;27.77;;;20.15;;
21297;SDS011;10808;48.010;11.326;2022-08-19T08:38:41;29.27;;;20.33;;
21297;SDS011;10808;48.010;11.326;2022-08-19T08:43:56;32.10;;;21.48;;
21297;SDS011;10808;48.010;11.326;2022-08-19T08:46:36;26.95;;;19.55;;
21297;SDS011;10808;48.010;11.326;2022-08-19T08:51:59;28.25;;;19.77;;
21297;SDS011;10808;48.010;11.326;2022-08-19T08:54:37;26.13;;;18.75;;
21297;SDS011;10808;48.010;11.326;2022-08-19T08:57:11;28.08;;;19.90;;
21297;SDS011;10808;48.010;11.326;2022-08-19T08:59:41;25.97;;;19.20;;
21297;SDS011;10808;48.010;11.326;2022-08-19T09:02:14;28.85;;;19.73;;
21297;SDS011;10808;48.010;11.326;2022-08-19T09:04:41;28.33;;;18.75;;
21297;SDS011;10808;48.010;11.326;2022-08-19T09:07:18;25.40;;;18.48;;
21297;SDS011;10808;48.010;11.326;2022-08-19T09:10:49;27.70;;;19.20;;
21297;SDS011;10808;48.010;11.326;2022-08-19T09:16:11;21.30;;;15.98;;
21297;SDS011;10808;48.010;11.326;2022-08-19T09:21:18;20.63;;;15.27;;
21297;SDS011;10808;48.010;11.326;2022-08-19T09:23:46;23.90;;;16.27;;
21297;SDS011;10808;48.010;11.326;2022-08-19T09:26:13;21.83;;;15.05;;
21297;SDS011;10808;48.010;11.326;2022-08-19T09:28:42;19.88;;;15.25;;
21297;SDS011;10808;48.010;11.326;2022-08-19T09:31:24;18.45;;;14.07;;
21297;SDS011;10808;48.010;11.326;2022-08-19T09:33:52;20.63;;;15.35;;
21297;SDS011;10808;48.010;11.326;2022-08-19T09:36:23;21.57;;;15.50;;
21297;SDS011;10808;48.010;11.326;2022-08-19T09:38:52;20.25;;;15.05;;
21297;SDS011;10808;48.010;11.326;2022-08-19T09:41:22;19.10;;;14.27;;
21297;SDS011;10808;48.010;11.326;2022-08-19T09:43:50;18.43;;;14.20;;
21297;SDS011;10808;48.010;11.326;2022-08-19T09:46:21;16.70;;;12.75;;
21297;SDS011;10808;48.010;11.326;2022-08-19T09:48:49;15.32;;;12.00;;
21297;SDS011;10808;48.010;11.326;2022-08-19T09:51:16;13.80;;;11.30;;
21297;SDS011;10808;48.010;11.326;2022-08-19T09:53:45;14.50;;;11.52;;
21297;SDS011;10808;48.010;11.326;2022-08-19T09:56:16;13.48;;;11.00;;
21297;SDS011;10808;48.010;11.326;2022-08-19T09:58:44;14.00;;;11.65;;
21297;SDS011;10808;48.010;11.326;2022-08-19T10:01:15;14.00;;;10.73;;
21297;SDS011;10808;48.010;11.326;2022-08-19T10:03:50;13.23;;;10.80;;
21297;SDS011;10808;48.010;11.326;2022-08-19T10:06:20;13.07;;;10.82;;
21297;SDS011;10808;48.010;11.326;2022-08-19T10:08:48;12.48;;;10.77;;
21297;SDS011;10808;48.010;11.326;2022-08-19T10:11:15;12.80;;;10.38;;
21297;SDS011;10808;48.010;11.326;2022-08-19T10:13:42;12.55;;;10.48;;
21297;SDS011;10808;48.010;11.326;2022-08-19T10:16:11;11.63;;;10.18;;
21297;SDS011;10808;48.010;11.326;2022-08-19T10:18:39;12.88;;;9.70;;
21297;SDS011;10808;48.010;11.326;2022-08-19T10:21:10;10.70;;;9.07;;
21297;SDS011;10808;48.010;11.326;2022-08-19T10:23:40;11.35;;;9.80;;
21297;SDS011;10808;48.010;11.326;2022-08-19T10:26:11;10.45;;;8.90;;
21297;SDS011;10808;48.010;11.326;2022-08-19T10:28:38;9.63;;;8.50;;
21297;SDS011;10808;48.010;11.326;2022-08-19T10:31:09;9.95;;;8.70;;
21297;SDS011;10808;48.010;11.326;2022-08-19T10:33:43;10.35;;;9.02;;
21297;SDS011;10808;48.010;11.326;2022-08-19T10:36:11;11.35;;;8.68;;
21297;SDS011;10808;48.010;11.326;2022-08-19T10:38:43;11.90;;;8.82;;
21297;SDS011;10808;48.010;11.326;2022-08-19T10:41:14;10.88;;;8.98;;
21297;SDS011;10808;48.010;11.326;2022-08-19T10:43:45;9.27;;;7.90;;
21297;SDS011;10808;48.010;11.326;2022-08-19T10:46:12;9.25;;;8.15;;
21297;SDS011;10808;48.010;11.326;2022-08-19T10:48:41;11.85;;;9.23;;
21297;SDS011;10808;48.010;11.326;2022-08-19T10:51:08;10.38;;;8.80;;
21297;SDS011;10808;48.010;11.326;2022-08-19T10:53:53;10.07;;;8.95;;
21297;SDS011;10808;48.010;11.326;2022-08-19T10:56:21;9.05;;;8.07;;
21297;SDS011;10808;48.010;11.326;2022-08-19T10:59:06;8.82;;;7.93;;
21297;SDS011;10808;48.010;11.326;2022-08-19T11:01:33;9.43;;;8.43;;
21297;SDS011;10808;48.010;11.326;2022-08-19T11:04:00;9.30;;;8.30;;
21297;SDS011;10808;48.010;11.326;2022-08-19T11:06:27;10.00;;;8.07;;
21297;SDS011;10808;48.010;11.326;2022-08-19T11:08:55;8.53;;;7.63;;
21297;SDS011;10808;48.010;11.326;2022-08-19T11:11:21;7.63;;;6.83;;
21297;SDS011;10808;48.010;11.326;2022-08-19T11:13:48;7.50;;;6.70;;
21297;SDS011;10808;48.010;11.326;2022-08-19T11:16:19;7.82;;;6.80;;
21297;SDS011;10808;48.010;11.326;2022-08-19T11:18:48;10.32;;;8.95;;
21297;SDS011;10808;48.010;11.326;2022-08-19T11:21:27;11.07;;;9.87;;
21297;SDS011;10808;48.010;11.326;2022-08-19T11:23:58;12.43;;;10.38;;
21297;SDS011;10808;48.010;11.326;2022-08-19T11:26:27;12.55;;;9.93;;
21297;SDS011;10808;48.010;11.326;2022-08-19T11:28:53;11.35;;;9.73;;
21297;SDS011;10808;48.010;11.326;2022-08-19T11:31:22;13.25;;;10.18;;
21297;SDS011;10808;48.010;11.326;2022-08-19T11:33:50;13.00;;;10.60;;
21297;SDS011;10808;48.010;11.326;2022-08-19T11:36:17;12.40;;;10.25;;
21297;SDS011;10808;48.010;11.326;2022-08-19T11:38:45;14.35;;;11.35;;
21297;SDS011;10808;48.010;11.326;2022-08-19T11:41:14;18.27;;;12.75;;
21297;SDS011;10808;48.010;11.326;2022-08-19T11:43:41;16.70;;;12.85;;
21297;SDS011;10808;48.010;11.326;2022-08-19T11:46:08;16.13;;;13.15;;
21297;SDS011;10808;48.010;11.326;2022-08-19T11:48:37;16.75;;;13.10;;
21297;SDS011;10808;48.010;11.326;2022-08-19T11:51:05;17.15;;;12.80;;
21297;SDS011;10808;48.010;11.326;2022-08-19T11:53:33;16.03;;;12.40;;
21297;SDS011;10808;48.010;11.326;2022-08-19T11:56:00;14.55;;;11.70;;
21297;SDS011;10808;48.010;11.326;2022-08-19T11:58:26;13.68;;;11.45;;
21297;SDS011;10808;48.010;11.326;2022-08-19T12:00:52;13.63;;;10.95;;
21297;SDS011;10808;48.010;11.326;2022-08-19T12:03:18;13.13;;;10.55;;
21297;SDS011;10808;48.010;11.326;2022-08-19T12:05:45;13.77;;;10.00;;
21297;SDS011;10808;48.010;11.326;2022-08-19T12:08:11;11.05;;;9.18;;
21297;SDS011;10808;48.010;11.326;2022-08-19T12:10:38;10.20;;;8.82;;
21297;SDS011;10808;48.010;11.326;2022-08-19T12:13:08;10.55;;;8.18;;
21297;SDS011;10808;48.010;11.326;2022-08-19T12:15:36;9.83;;;8.10;;
21297;SDS011;10808;48.010;11.326;2022-08-19T12:18:04;8.15;;;7.22;;
21297;SDS011;10808;48.010;11.326;2022-08-19T12:20:30;7.30;;;6.55;;
21297;SDS011;10808;48.010;11.326;2022-08-19T12:22:57;7.40;;;6.38;;
21297;SDS011;10808;48.010;11.326;2022-08-19T12:25:23;7.72;;;6.30;;
21297;SDS011;10808;48.010;11.326;2022-08-19T12:27:49;6.20;;;5.53;;
21297;SDS011;10808;48.010;11.326;2022-08-19T12:30:16;7.28;;;5.90;;
21297;SDS011;10808;48.010;11.326;2022-08-19T12:32:42;5.40;;;4.40;;
21297;SDS011;10808;48.010;11.326;2022-08-19T12:35:08;4.20;;;3.80;;
21297;SDS011;10808;48.010;11.326;2022-08-19T12:37:36;3.60;;;3.30;;
21297;SDS011;10808;48.010;11.326;2022-08-19T12:40:03;3.70;;;2.90;;
21297;SDS011;10808;48.010;11.326;2022-08-19T12:42:29;3.00;;;2.70;;
21297;SDS011;10808;48.010;11.326;2022-08-19T12:44:55;3.20;;;2.90;;
21297;SDS011;10808;48.010;11.326;2022-08-19T12:47:23;2.67;;;2.47;;
21297;SDS011;10808;48.010;11.326;2022-08-19T12:49:49;3.53;;;2.77;;
21297;SDS011;10808;48.010;11.326;2022-08-19T12:52:16;2.60;;;2.40;;
21297;SDS011;10808;48.010;11.326;2022-08-19T12:54:46;2.30;;;2.10;;
21297;SDS011;10808;48.010;11.326;2022-08-19T12:57:12;3.03;;;2.75;;
21297;SDS011;10808;48.010;11.326;2022-08-19T12:59:38;2.63;;;2.42;;
21297;SDS011;10808;48.010;11.326;2022-08-19T13:02:05;2.75;;;2.55;;
21297;SDS011;10808;48.010;11.326;2022-08-19T13:04:33;2.92;;;2.63;;
21297;SDS011;10808;48.010;11.326;2022-08-19T13:07:06;2.80;;;2.60;;
21297;SDS011;10808;48.010;11.326;2022-08-19T13:09:35;2.60;;;2.40;;
21297;SDS011;10808;48.010;11.326;2022-08-19T13:12:02;3.20;;;2.90;;
21297;SDS011;10808;48.010;11.326;2022-08-19T13:14:33;2.90;;;2.60;;
21297;SDS011;10808;48.010;11.326;2022-08-19T13:17:00;2.78;;;2.58;;
21297;SDS011;10808;48.010;11.326;2022-08-19T13:19:26;4.20;;;2.70;;
21297;SDS011;10808;48.010;11.326;2022-08-19T13:21:53;3.08;;;2.78;;
21297;SDS011;10808;48.010;11.326;2022-08-19T13:24:21;3.40;;;3.10;;
21297;SDS011;10808;48.010;11.326;2022-08-19T13:26:47;3.80;;;3.40;;
21297;SDS011;10808;48.010;11.326;2022-08-19T13:29:13;3.50;;;3.20;;
21297;SDS011;10808;48.010;11.326;2022-08-19T13:31:58;3.72;;;3.42;;
21297;SDS011;10808;48.010;11.326;2022-08-19T13:34:43;4.00;;;3.23;;
21297;SDS011;10808;48.010;11.326;2022-08-19T13:37:10;3.43;;;3.13;;
21297;SDS011;10808;48.010;11.326;2022-08-19T13:39:36;3.70;;;3.40;;
21297;SDS011;10808;48.010;11.326;2022-08-19T13:42:02;3.42;;;3.10;;
21297;SDS011;10808;48.010;11.326;2022-08-19T13:44:30;4.00;;;3.60;;
21297;SDS011;10808;48.010;11.326;2022-08-19T13:47:03;3.40;;;3.10;;
21297;SDS011;10808;48.010;11.326;2022-08-19T13:49:34;3.50;;;3.20;;
21297;SDS011;10808;48.010;11.326;2022-08-19T13:52:02;3.33;;;3.00;;
21297;SDS011;10808;48.010;11.326;2022-08-19T13:54:29;3.40;;;3.10;;
21297;SDS011;10808;48.010;11.326;2022-08-19T13:56:55;3.30;;;3.00;;
21297;SDS011;10808;48.010;11.326;2022-08-19T13:59:21;2.95;;;2.75;;
21297;SDS011;10808;48.010;11.326;2022-08-19T14:01:47;3.42;;;2.60;;
21297;SDS011;10808;48.010;11.326;2022-08-19T14:04:13;2.40;;;2.20;;
21297;SDS011;10808;48.010;11.326;2022-08-19T14:06:39;2.47;;;2.25;;
21297;SDS011;10808;48.010;11.326;2022-08-19T14:09:06;2.33;;;2.13;;
21297;SDS011;10808;48.010;11.326;2022-08-19T14:11:33;3.05;;;2.50;;
21297;SDS011;10808;48.010;11.326;2022-08-19T14:13:59;2.47;;;2.28;;
21297;SDS011;10808;48.010;11.326;2022-08-19T14:16:25;3.13;;;2.42;;
21297;SDS011;10808;48.010;11.326;2022-08-19T14:18:52;2.63;;;2.42;;
21297;SDS011;10808;48.010;11.326;2022-08-19T14:21:20;2.92;;;2.72;;
21297;SDS011;10808;48.010;11.326;2022-08-19T14:23:49;2.50;;;2.30;;
21297;SDS011;10808;48.010;11.326;2022-08-19T14:26:16;2.38;;;2.17;;
21297;SDS011;10808;48.010;11.326;2022-08-19T14:28:43;2.38;;;1.98;;
21297;SDS011;10808;48.010;11.326;2022-08-19T14:31:11;2.17;;;1.98;;
21297;SDS011;10808;48.010;11.326;2022-08-19T14:33:38;2.20;;;1.90;;
21297;SDS011;10808;48.010;11.326;2022-08-19T14:36:06;1.70;;;1.60;;
21297;SDS011;10808;48.010;11.326;2022-08-19T14:38:32;2.10;;;1.90;;
21297;SDS011;10808;48.010;11.326;2022-08-19T14:43:49;2.85;;;2.20;;
21297;SDS011;10808;48.010;11.326;2022-08-19T14:46:17;2.60;;;2.40;;
21297;SDS011;10808;48.010;11.326;2022-08-19T14:48:46;2.80;;;2.60;;